createdAt,value
2023-02-14T00:00:39.215Z,18.90
2023-02-14T00:03:05.665Z,16.13
2023-02-14T00:05:32.226Z,16.50
2023-02-14T00:07:58.742Z,17.97
2023-02-14T00:10:25.393Z,18.05
2023-02-14T00:12:51.798Z,17.02
2023-02-14T00:15:24.981Z,18.58
2023-02-14T00:17:54.579Z,20.35
2023-02-14T00:20:24.546Z,21.97
2023-02-14T00:22:51.013Z,20.10
2023-02-14T00:25:18.173Z,16.40
2023-02-14T00:27:44.628Z,18.05
2023-02-14T00:30:13.135Z,15.57
2023-02-14T00:32:40.769Z,15.80
2023-02-14T00:35:08.597Z,16.70
2023-02-14T00:37:35.087Z,16.40
2023-02-14T00:40:01.660Z,14.38
2023-02-14T00:42:28.364Z,17.23
2023-02-14T00:44:54.922Z,14.80
2023-02-14T00:47:21.384Z,17.77
2023-02-14T00:49:47.851Z,20.98
2023-02-14T00:52:14.351Z,22.80
2023-02-14T00:54:40.781Z,19.02
2023-02-14T00:57:07.522Z,19.40
2023-02-14T00:59:33.952Z,19.77
2023-02-14T01:02:00.400Z,21.05
2023-02-14T01:04:27.117Z,21.23
2023-02-14T01:06:53.598Z,20.60
2023-02-14T01:09:20.059Z,21.83
2023-02-14T01:11:46.492Z,20.52
2023-02-14T01:14:12.971Z,18.65
2023-02-14T01:16:39.868Z,19.63
2023-02-14T01:19:06.547Z,19.20
2023-02-14T01:21:34.113Z,17.20
2023-02-14T01:24:03.972Z,18.25
2023-02-14T01:26:30.467Z,17.00
2023-02-14T01:28:57.107Z,23.00
2023-02-14T01:31:26.723Z,18.75
2023-02-14T01:33:54.909Z,17.03
2023-02-14T01:36:26.037Z,18.33
2023-02-14T01:38:55.611Z,21.88
2023-02-14T01:41:23.078Z,20.17
2023-02-14T01:44:15.706Z,21.98
2023-02-14T01:46:44.388Z,18.93
2023-02-14T01:49:20.381Z,22.83
2023-02-14T01:51:56.302Z,18.48
2023-02-14T01:54:26.027Z,21.33
2023-02-14T01:57:00.892Z,19.23
2023-02-14T01:59:34.282Z,20.37
2023-02-14T02:02:00.870Z,19.23
2023-02-14T02:04:34.601Z,21.90
2023-02-14T02:07:05.749Z,19.85
2023-02-14T02:09:56.555Z,18.80
2023-02-14T02:12:23.287Z,20.73
2023-02-14T02:14:53.266Z,22.10
2023-02-14T02:17:53.278Z,20.70
2023-02-14T02:21:13.529Z,23.73
2023-02-14T02:24:07.004Z,20.50
2023-02-14T02:26:48.810Z,20.60
2023-02-14T02:29:27.368Z,19.83
2023-02-14T02:32:31.575Z,21.08
2023-02-14T02:35:30.154Z,22.77
2023-02-14T02:38:41.780Z,18.65
2023-02-14T02:41:18.321Z,21.23
2023-02-14T02:44:13.311Z,29.92
2023-02-14T02:46:49.093Z,24.00
2023-02-14T02:49:52.970Z,28.15
2023-02-14T02:53:01.558Z,21.42
2023-02-14T02:55:56.383Z,23.33
2023-02-14T02:58:27.185Z,33.13
2023-02-14T03:00:55.326Z,38.75
2023-02-14T03:03:43.292Z,41.08
2023-02-14T03:06:09.807Z,40.60
2023-02-14T03:08:36.153Z,39.80
2023-02-14T03:11:04.757Z,42.60
2023-02-14T03:14:05.336Z,29.23
2023-02-14T03:16:39.529Z,33.45
2023-02-14T03:19:59.947Z,92.82
2023-02-14T03:22:37.039Z,58.83
2023-02-14T03:25:19.136Z,124.47
2023-02-14T03:27:54.137Z,100.40
2023-02-14T03:30:36.589Z,142.07
2023-02-14T03:33:14.327Z,107.53
2023-02-14T03:36:02.065Z,77.10
2023-02-14T03:38:28.523Z,67.38
2023-02-14T03:41:05.496Z,144.18
2023-02-14T03:43:37.304Z,115.72
2023-02-14T03:46:10.522Z,135.20
2023-02-14T03:48:39.308Z,65.43
2023-02-14T03:51:08.909Z,172.23
2023-02-14T03:53:38.489Z,204.80
2023-02-14T03:56:40.015Z,211.63
2023-02-14T03:59:13.920Z,234.27
2023-02-14T04:01:53.401Z,154.07
2023-02-14T04:04:24.142Z,151.55
2023-02-14T04:06:50.741Z,149.65
2023-02-14T04:09:17.288Z,114.97
2023-02-14T04:11:44.057Z,67.88
2023-02-14T04:14:10.495Z,137.00
2023-02-14T04:16:56.966Z,88.82
2023-02-14T04:19:23.410Z,126.82
2023-02-14T04:21:50.950Z,67.63
2023-02-14T04:24:17.568Z,96.28
2023-02-14T04:26:54.205Z,82.27
2023-02-14T04:29:21.311Z,67.20
2023-02-14T04:31:47.953Z,120.53
2023-02-14T04:34:15.123Z,90.55
2023-02-14T04:36:41.548Z,55.95
2023-02-14T04:39:08.009Z,111.90
2023-02-14T04:41:34.488Z,130.45
2023-02-14T04:44:00.893Z,221.10
2023-02-14T04:46:27.963Z,102.60
2023-02-14T04:48:54.416Z,139.73
2023-02-14T04:51:20.896Z,131.60
2023-02-14T04:53:47.479Z,105.13
2023-02-14T04:56:13.913Z,49.42
2023-02-14T04:58:40.372Z,106.72
2023-02-14T05:01:06.938Z,52.58
2023-02-14T05:03:33.409Z,88.77
2023-02-14T05:05:59.791Z,100.32
2023-02-14T05:08:26.182Z,65.07
2023-02-14T05:10:52.588Z,71.15
2023-02-14T05:13:18.971Z,61.80
2023-02-14T05:15:45.978Z,53.23
2023-02-14T05:18:12.449Z,93.28
2023-02-14T05:20:38.795Z,83.90
2023-02-14T05:23:05.377Z,52.75
2023-02-14T05:25:32.063Z,42.08
2023-02-14T05:27:58.476Z,33.47
2023-02-14T05:30:27.990Z,38.13
2023-02-14T05:32:54.752Z,37.45
2023-02-14T05:35:21.293Z,38.33
2023-02-14T05:37:47.796Z,32.35
2023-02-14T05:40:16.143Z,37.97
2023-02-14T05:42:43.327Z,36.13
2023-02-14T05:45:10.782Z,36.42
2023-02-14T05:47:37.381Z,44.00
2023-02-14T05:50:04.498Z,43.55
2023-02-14T05:52:30.927Z,40.47
2023-02-14T05:54:57.461Z,41.15
2023-02-14T05:57:23.859Z,43.33
2023-02-14T05:59:50.268Z,48.47
2023-02-14T06:02:16.697Z,48.95
2023-02-14T06:04:43.226Z,55.23
2023-02-14T06:07:09.652Z,99.75
2023-02-14T06:09:36.120Z,286.35
2023-02-14T06:12:02.564Z,189.20
2023-02-14T06:14:28.992Z,217.32
2023-02-14T06:16:55.466Z,176.50
2023-02-14T06:19:21.962Z,278.95
2023-02-14T06:21:48.461Z,233.20
2023-02-14T06:24:14.954Z,423.90
2023-02-14T06:26:41.417Z,300.38
2023-02-14T06:29:07.868Z,291.33
2023-02-14T06:31:34.469Z,308.05
2023-02-14T06:34:00.988Z,154.25
2023-02-14T06:36:27.875Z,331.38
2023-02-14T06:38:54.420Z,264.75
2023-02-14T06:41:20.839Z,453.57
2023-02-14T06:43:50.208Z,351.92
2023-02-14T06:46:18.150Z,300.70
2023-02-14T06:48:44.799Z,399.08
2023-02-14T06:51:11.903Z,304.35
2023-02-14T06:53:38.396Z,237.53
2023-02-14T06:56:05.271Z,338.10
2023-02-14T06:58:32.309Z,257.42
2023-02-14T07:00:59.566Z,210.10
2023-02-14T07:03:27.304Z,350.80
2023-02-14T07:05:54.421Z,435.67
2023-02-14T07:08:21.359Z,320.77
2023-02-14T07:10:47.789Z,290.42
2023-02-14T07:13:14.161Z,287.50
2023-02-14T07:15:40.569Z,150.02
2023-02-14T07:18:10.523Z,182.43
2023-02-14T07:20:37.127Z,216.73
2023-02-14T07:23:03.687Z,210.18
2023-02-14T07:25:30.138Z,100.30
2023-02-14T07:27:56.570Z,127.35
2023-02-14T07:30:23.138Z,100.73
2023-02-14T07:32:49.620Z,67.57
2023-02-14T07:35:16.189Z,81.00
2023-02-14T07:37:42.605Z,96.63
2023-02-14T07:40:14.519Z,58.47
2023-02-14T07:42:41.568Z,65.90
2023-02-14T07:45:20.742Z,91.35
2023-02-14T07:47:50.096Z,65.80
2023-02-14T07:50:16.883Z,63.95
2023-02-14T07:52:43.878Z,122.30
2023-02-14T07:55:10.511Z,45.23
2023-02-14T07:57:37.055Z,84.97
2023-02-14T08:00:05.936Z,91.93
2023-02-14T08:02:32.371Z,83.95
2023-02-14T08:04:58.827Z,128.00
2023-02-14T08:07:25.333Z,131.30
2023-02-14T08:09:51.773Z,124.68
2023-02-14T08:12:36.965Z,97.35
2023-02-14T08:15:22.278Z,116.47
2023-02-14T08:17:48.927Z,151.15
2023-02-14T08:20:15.383Z,179.37
2023-02-14T08:22:41.833Z,148.02
2023-02-14T08:25:08.496Z,114.00
2023-02-14T08:27:34.893Z,143.77
2023-02-14T08:30:01.442Z,100.57
2023-02-14T08:32:28.050Z,53.03
2023-02-14T08:34:54.535Z,59.78
2023-02-14T08:37:20.987Z,66.07
2023-02-14T08:39:47.388Z,143.50
2023-02-14T08:42:13.828Z,65.05
2023-02-14T08:44:40.340Z,67.97
2023-02-14T08:47:07.105Z,62.90
2023-02-14T08:49:33.535Z,68.97
2023-02-14T08:52:00.011Z,53.35
2023-02-14T08:54:26.514Z,72.90
2023-02-14T08:56:52.918Z,52.30
2023-02-14T08:59:19.378Z,89.82
2023-02-14T09:01:45.833Z,109.03
2023-02-14T09:04:12.297Z,126.05
2023-02-14T09:06:39.493Z,98.50
2023-02-14T09:09:07.231Z,103.93
2023-02-14T09:11:34.741Z,74.18
2023-02-14T09:14:01.253Z,66.00
2023-02-14T09:16:27.746Z,49.72
2023-02-14T09:18:54.750Z,71.20
2023-02-14T09:21:24.988Z,69.63
2023-02-14T09:23:52.272Z,53.85
2023-02-14T09:26:19.891Z,62.53
2023-02-14T09:28:46.542Z,121.35
2023-02-14T09:31:22.839Z,69.47
2023-02-14T09:33:50.441Z,94.67
2023-02-14T09:36:35.470Z,63.00
2023-02-14T09:39:01.990Z,65.25
2023-02-14T09:41:28.306Z,43.80
2023-02-14T09:43:54.691Z,60.90
2023-02-14T09:46:24.681Z,60.77
2023-02-14T09:48:53.152Z,44.42
2023-02-14T09:51:23.332Z,47.38
2023-02-14T09:53:55.096Z,42.97
2023-02-14T09:56:31.077Z,61.10
2023-02-14T09:59:12.550Z,42.07
2023-02-14T10:01:49.406Z,50.30
2023-02-14T10:04:21.637Z,42.55
2023-02-14T10:06:54.827Z,36.95
2023-02-14T10:09:42.935Z,65.07
2023-02-14T10:12:24.291Z,57.47
2023-02-14T10:14:53.416Z,49.45
2023-02-14T10:17:31.318Z,49.63
2023-02-14T10:20:05.724Z,37.33
2023-02-14T10:22:43.225Z,38.03
2023-02-14T10:25:38.921Z,35.40
2023-02-14T10:28:12.117Z,35.83
2023-02-14T10:30:40.245Z,40.40
2023-02-14T10:33:17.695Z,34.85
2023-02-14T10:35:55.457Z,37.35
2023-02-14T10:38:33.748Z,39.20
2023-02-14T10:41:08.658Z,36.53
2023-02-14T10:44:06.011Z,39.10
2023-02-14T10:46:53.584Z,36.78
2023-02-14T10:49:40.412Z,34.67
2023-02-14T10:52:27.197Z,34.47
2023-02-14T10:54:57.131Z,41.20
2023-02-14T10:57:36.062Z,44.92
2023-02-14T11:00:23.269Z,38.92
2023-02-14T11:02:53.618Z,42.03
2023-02-14T11:05:45.050Z,38.57
2023-02-14T11:08:33.092Z,37.22
2023-02-14T11:11:29.539Z,39.03
2023-02-14T11:13:55.976Z,47.38
2023-02-14T11:16:34.552Z,46.83
2023-02-14T11:19:15.996Z,43.17
2023-02-14T11:21:44.592Z,42.65
2023-02-14T11:24:36.397Z,34.88
2023-02-14T11:27:07.373Z,40.80
2023-02-14T11:29:48.122Z,34.63
2023-02-14T11:32:29.777Z,36.33
2023-02-14T11:35:04.884Z,36.47
2023-02-14T11:37:37.034Z,37.40
2023-02-14T11:40:05.197Z,37.92
2023-02-14T11:42:42.721Z,35.13
2023-02-14T11:45:27.949Z,33.73
2023-02-14T11:48:06.528Z,32.85
2023-02-14T11:50:33.120Z,34.00
2023-02-14T11:53:00.127Z,34.80
2023-02-14T11:55:29.626Z,31.50
2023-02-14T11:57:57.505Z,33.40
2023-02-14T12:00:27.026Z,32.88
2023-02-14T12:02:53.989Z,39.20
2023-02-14T12:05:23.006Z,33.03
2023-02-14T12:07:55.236Z,35.40
2023-02-14T12:10:28.039Z,36.73
2023-02-14T12:13:08.640Z,35.28
2023-02-14T12:15:43.858Z,31.50
2023-02-14T12:18:34.589Z,33.10
2023-02-14T12:21:12.702Z,29.05
2023-02-14T12:23:56.749Z,31.90
2023-02-14T12:26:35.007Z,32.00
2023-02-14T12:29:20.041Z,30.98
2023-02-14T12:31:48.501Z,33.42
2023-02-14T12:34:17.519Z,32.92
2023-02-14T12:36:50.110Z,34.30
2023-02-14T12:39:36.901Z,33.55
2023-02-14T12:42:03.465Z,29.98
2023-02-14T12:44:46.694Z,36.33
2023-02-14T12:47:40.318Z,31.02
2023-02-14T12:50:36.030Z,31.53
2023-02-14T12:53:08.146Z,26.85
2023-02-14T12:56:05.672Z,32.78
2023-02-14T12:58:38.100Z,36.65
2023-02-14T13:01:38.514Z,34.15
2023-02-14T13:04:22.608Z,34.70
2023-02-14T13:06:55.881Z,41.60
2023-02-14T13:09:47.719Z,36.85
2023-02-14T13:12:36.230Z,32.63
2023-02-14T13:15:19.976Z,33.45
2023-02-14T13:18:03.193Z,31.67
2023-02-14T13:20:48.448Z,36.70
2023-02-14T13:23:27.489Z,32.75
2023-02-14T13:26:48.517Z,32.50
2023-02-14T13:29:20.478Z,36.63
2023-02-14T13:31:48.693Z,31.33
2023-02-14T13:34:30.599Z,36.28
2023-02-14T13:36:58.813Z,31.90
2023-02-14T13:39:36.195Z,32.53
2023-02-14T13:42:05.941Z,34.72
2023-02-14T13:44:38.565Z,36.53
2023-02-14T13:47:07.959Z,32.53
2023-02-14T13:49:39.182Z,36.35
2023-02-14T13:52:06.616Z,40.75
2023-02-14T13:54:45.863Z,34.15
2023-02-14T13:57:32.176Z,33.90
2023-02-14T14:00:17.109Z,32.80
2023-02-14T14:02:47.575Z,34.83
2023-02-14T14:05:40.467Z,37.78
2023-02-14T14:08:25.028Z,35.20
2023-02-14T14:10:55.382Z,34.47
2023-02-14T14:13:40.127Z,36.10
2023-02-14T14:16:27.718Z,34.22
2023-02-14T14:18:56.280Z,36.85
2023-02-14T14:21:28.724Z,31.48
2023-02-14T14:24:14.934Z,36.40
2023-02-14T14:26:53.151Z,36.60
2023-02-14T14:29:28.484Z,30.65
2023-02-14T14:31:57.726Z,33.72
2023-02-14T14:34:27.751Z,34.08
2023-02-14T14:37:15.120Z,36.93
2023-02-14T14:39:41.851Z,32.60
2023-02-14T14:42:13.115Z,39.47
2023-02-14T14:44:51.137Z,34.75
2023-02-14T14:47:21.893Z,38.65
2023-02-14T14:49:48.757Z,38.70
2023-02-14T14:52:31.873Z,36.67
2023-02-14T14:54:59.428Z,37.55
2023-02-14T14:57:26.113Z,37.40
2023-02-14T15:00:09.441Z,35.17
2023-02-14T15:02:35.904Z,40.57
2023-02-14T15:05:25.916Z,49.65
2023-02-14T15:07:52.643Z,45.88
2023-02-14T15:10:30.662Z,44.75
2023-02-14T15:13:17.412Z,43.13
2023-02-14T15:15:50.884Z,38.63
2023-02-14T15:18:18.422Z,36.72
2023-02-14T15:20:49.663Z,36.13
2023-02-14T15:23:19.957Z,36.30
2023-02-14T15:25:49.013Z,36.30
2023-02-14T15:28:27.676Z,36.27
2023-02-14T15:30:59.576Z,37.25
2023-02-14T15:33:28.679Z,35.47
2023-02-14T15:35:56.677Z,35.35
2023-02-14T15:38:24.455Z,37.53
2023-02-14T15:40:54.524Z,40.13
2023-02-14T15:43:30.247Z,44.30
2023-02-14T15:46:34.583Z,42.72
2023-02-14T15:49:08.144Z,42.30
2023-02-14T15:51:36.441Z,45.58
2023-02-14T15:54:07.550Z,52.33
2023-02-14T15:56:43.606Z,55.70
2023-02-14T15:59:19.881Z,47.17
2023-02-14T16:01:59.602Z,45.92
2023-02-14T16:04:31.792Z,47.83
2023-02-14T16:07:21.430Z,45.70
2023-02-14T16:09:49.402Z,47.13
2023-02-14T16:12:30.883Z,43.13
2023-02-14T16:15:03.452Z,44.47
2023-02-14T16:17:34.759Z,43.67
2023-02-14T16:20:21.135Z,55.60
2023-02-14T16:22:47.606Z,53.80
2023-02-14T16:25:14.280Z,62.15
2023-02-14T16:27:40.921Z,53.70
2023-02-14T16:30:09.120Z,49.33
2023-02-14T16:32:37.040Z,66.93
2023-02-14T16:35:03.550Z,71.63
2023-02-14T16:37:34.756Z,57.85
2023-02-14T16:40:01.871Z,49.30
2023-02-14T16:42:28.366Z,60.33
2023-02-14T16:44:54.815Z,54.53
2023-02-14T16:47:21.311Z,53.47
2023-02-14T16:49:48.079Z,48.85
2023-02-14T16:52:23.466Z,47.42
2023-02-14T16:54:50.317Z,46.63
2023-02-14T16:57:21.629Z,82.70
2023-02-14T16:59:49.303Z,53.17
2023-02-14T17:02:18.378Z,53.13
2023-02-14T17:04:45.325Z,55.35
2023-02-14T17:07:14.384Z,50.97
2023-02-14T17:09:44.817Z,53.10
2023-02-14T17:12:16.951Z,53.03
2023-02-14T17:14:48.951Z,57.17
2023-02-14T17:17:16.065Z,51.35
2023-02-14T17:19:43.019Z,57.00
2023-02-14T17:22:12.967Z,57.63
2023-02-14T17:24:39.855Z,61.95
2023-02-14T17:27:07.633Z,278.45
2023-02-14T17:29:34.406Z,158.23
2023-02-14T17:32:00.972Z,107.88
2023-02-14T17:34:31.856Z,106.97
2023-02-14T17:36:58.724Z,151.32
2023-02-14T17:39:25.192Z,66.55
2023-02-14T17:41:53.144Z,63.55
2023-02-14T17:44:19.709Z,121.75
2023-02-14T17:46:46.261Z,126.10
2023-02-14T17:49:12.724Z,82.63
2023-02-14T17:51:39.294Z,79.82
2023-02-14T17:54:05.758Z,76.60
2023-02-14T17:56:32.169Z,83.20
2023-02-14T17:58:59.765Z,96.77
2023-02-14T18:01:31.474Z,75.80
2023-02-14T18:03:58.320Z,78.97
2023-02-14T18:06:26.583Z,143.00
2023-02-14T18:08:56.632Z,105.97
2023-02-14T18:11:25.882Z,243.20
2023-02-14T18:13:56.213Z,234.00
2023-02-14T18:16:22.867Z,152.13
2023-02-14T18:18:49.437Z,351.77
2023-02-14T18:21:20.252Z,254.00
2023-02-14T18:23:48.034Z,262.70
2023-02-14T18:26:17.954Z,197.57
2023-02-14T18:28:44.943Z,169.10
2023-02-14T18:31:14.585Z,196.05
2023-02-14T18:33:41.663Z,272.65
2023-02-14T18:36:12.154Z,183.00
2023-02-14T18:38:40.242Z,166.48
2023-02-14T18:41:09.264Z,205.23
2023-02-14T18:43:36.480Z,235.88
2023-02-14T18:46:09.199Z,282.63
2023-02-14T18:48:36.356Z,205.73
2023-02-14T18:51:08.716Z,207.18
2023-02-14T18:53:36.375Z,164.40
2023-02-14T18:56:07.622Z,186.70
2023-02-14T18:58:48.424Z,254.82
2023-02-14T19:01:17.701Z,143.77
2023-02-14T19:03:49.571Z,228.02
2023-02-14T19:06:16.785Z,216.00
2023-02-14T19:08:43.801Z,195.20
2023-02-14T19:11:19.692Z,301.33
2023-02-14T19:13:52.244Z,183.03
2023-02-14T19:16:30.629Z,219.75
2023-02-14T19:18:58.927Z,152.85
2023-02-14T19:21:27.758Z,110.90
2023-02-14T19:23:56.475Z,122.90
2023-02-14T19:26:30.003Z,81.47
2023-02-14T19:28:58.580Z,149.70
2023-02-14T19:31:26.300Z,137.27
2023-02-14T19:33:53.150Z,154.27
2023-02-14T19:36:21.830Z,128.40
2023-02-14T19:38:51.396Z,183.37
2023-02-14T19:41:27.486Z,178.32
2023-02-14T19:44:00.537Z,167.88
2023-02-14T19:46:28.234Z,143.25
2023-02-14T19:49:04.295Z,146.70
2023-02-14T19:51:33.397Z,99.17
2023-02-14T19:54:02.468Z,107.68
2023-02-14T19:56:32.936Z,115.97
2023-02-14T19:58:59.721Z,101.28
2023-02-14T20:01:39.381Z,164.32
2023-02-14T20:04:09.807Z,83.27
2023-02-14T20:06:40.457Z,76.50
2023-02-14T20:09:08.468Z,95.00
2023-02-14T20:11:46.555Z,86.47
2023-02-14T20:14:14.153Z,66.72
2023-02-14T20:16:40.744Z,93.17
2023-02-14T20:19:12.093Z,60.28
2023-02-14T20:21:43.355Z,46.83
2023-02-14T20:24:11.689Z,46.53
2023-02-14T20:26:39.423Z,51.33
2023-02-14T20:29:07.068Z,42.87
2023-02-14T20:31:34.512Z,44.00
2023-02-14T20:34:01.431Z,43.55
2023-02-14T20:36:28.271Z,40.58
2023-02-14T20:38:59.177Z,46.35
2023-02-14T20:41:27.590Z,39.47
2023-02-14T20:43:55.398Z,39.55
2023-02-14T20:46:22.544Z,39.05
2023-02-14T20:48:50.899Z,43.28
2023-02-14T20:51:19.094Z,43.38
2023-02-14T20:53:46.750Z,55.13
2023-02-14T20:56:14.367Z,82.00
2023-02-14T20:58:41.298Z,80.75
2023-02-14T21:01:16.319Z,133.88
2023-02-14T21:03:46.684Z,78.38
2023-02-14T21:06:14.866Z,90.07
2023-02-14T21:08:42.678Z,114.32
2023-02-14T21:11:11.646Z,78.93
2023-02-14T21:13:38.419Z,74.07
2023-02-14T21:16:08.337Z,116.32
2023-02-14T21:18:35.662Z,88.67
2023-02-14T21:21:12.163Z,75.88
2023-02-14T21:23:38.539Z,77.97
2023-02-14T21:26:05.043Z,146.98
2023-02-14T21:28:31.531Z,90.72
2023-02-14T21:31:09.104Z,115.63
2023-02-14T21:33:36.516Z,117.03
2023-02-14T21:36:14.759Z,97.68
2023-02-14T21:38:41.342Z,62.28
2023-02-14T21:41:11.388Z,87.65
2023-02-14T21:43:40.453Z,85.50
2023-02-14T21:46:09.429Z,122.28
2023-02-14T21:48:55.120Z,114.60
2023-02-14T21:51:22.394Z,72.10
2023-02-14T21:53:49.191Z,90.38
2023-02-14T21:56:19.560Z,77.03
2023-02-14T21:58:47.837Z,87.75
2023-02-14T22:01:43.858Z,85.13
2023-02-14T22:04:12.286Z,72.75
2023-02-14T22:06:40.336Z,174.10
2023-02-14T22:09:07.526Z,195.10
2023-02-14T22:11:35.032Z,144.82
2023-02-14T22:14:02.064Z,143.88
2023-02-14T22:16:28.659Z,146.48
2023-02-14T22:18:55.189Z,83.07
2023-02-14T22:21:24.871Z,199.67
2023-02-14T22:23:51.341Z,168.15
2023-02-14T22:26:22.832Z,129.65
2023-02-14T22:28:51.576Z,172.82
2023-02-14T22:31:18.952Z,162.98
2023-02-14T22:33:47.076Z,118.53
2023-02-14T22:36:13.486Z,205.57
2023-02-14T22:38:40.023Z,215.93
2023-02-14T22:41:20.458Z,70.32
2023-02-14T22:43:47.081Z,121.40
2023-02-14T22:46:22.013Z,267.00
2023-02-14T22:48:50.082Z,113.53
2023-02-14T22:51:25.281Z,166.27
2023-02-14T22:53:54.857Z,154.50
2023-02-14T22:56:26.995Z,72.88
2023-02-14T22:58:58.497Z,127.27
2023-02-14T23:01:25.891Z,169.55
2023-02-14T23:03:54.182Z,109.18
2023-02-14T23:06:20.691Z,102.10
2023-02-14T23:08:47.655Z,103.20
2023-02-14T23:11:20.785Z,96.23
2023-02-14T23:14:05.903Z,104.95
2023-02-14T23:16:50.867Z,141.07
2023-02-14T23:19:42.089Z,153.93
2023-02-14T23:22:10.205Z,113.13
2023-02-14T23:24:37.349Z,244.43
2023-02-14T23:27:04.163Z,130.10
2023-02-14T23:29:33.316Z,289.98
2023-02-14T23:31:59.870Z,167.52
2023-02-14T23:34:32.075Z,257.35
2023-02-14T23:36:59.640Z,194.53
2023-02-14T23:39:26.336Z,221.95
2023-02-14T23:41:53.213Z,354.73
2023-02-14T23:44:27.736Z,141.48
2023-02-14T23:46:56.933Z,207.80
2023-02-14T23:49:27.507Z,326.83
2023-02-14T23:51:55.279Z,182.07
2023-02-14T23:54:25.522Z,310.65
2023-02-14T23:56:52.843Z,296.73
2023-02-14T23:59:21.097Z,372.83
